createdAt,value
2022-09-07T00:02:26.637Z,15.55
2022-09-07T00:04:53.431Z,15.55
2022-09-07T00:07:20.662Z,15.54
2022-09-07T00:09:47.497Z,15.53
2022-09-07T00:12:14.282Z,15.52
2022-09-07T00:14:41.096Z,15.50
2022-09-07T00:17:07.842Z,15.52
2022-09-07T00:19:34.597Z,15.55
2022-09-07T00:22:01.536Z,15.56
2022-09-07T00:24:28.311Z,15.54
2022-09-07T00:27:55.030Z,15.53
2022-09-07T00:35:04.609Z,15.51
2022-09-07T00:38:31.182Z,15.51
2022-09-07T00:41:57.954Z,15.51
2022-09-07T00:45:03.075Z,15.50
2022-09-07T00:48:10.030Z,15.48
2022-09-07T00:55:25.144Z,15.47
2022-09-07T00:57:56.021Z,15.46
2022-09-07T01:01:22.862Z,15.45
2022-09-07T01:04:49.380Z,15.44
2022-09-07T01:08:16.025Z,15.43
2022-09-07T01:11:42.494Z,15.44
2022-09-07T01:15:14.777Z,15.41
2022-09-07T01:18:44.289Z,15.41
2022-09-07T01:21:49.454Z,15.41
2022-09-07T01:28:15.348Z,15.48
2022-09-07T01:31:41.786Z,15.48
2022-09-07T01:35:17.772Z,15.47
2022-09-07T01:38:42.316Z,15.47
2022-09-07T03:30:29.106Z,15.26
2022-09-07T03:32:55.812Z,15.27
2022-09-07T03:35:23.150Z,15.26
2022-09-07T03:37:50.351Z,15.26
2022-09-07T03:40:17.230Z,15.25
2022-09-07T03:42:47.891Z,15.24
2022-09-07T03:45:15.197Z,15.25
2022-09-07T03:47:41.872Z,15.25
2022-09-07T03:50:09.237Z,15.21
2022-09-07T03:52:37.304Z,15.22
2022-09-07T03:55:04.841Z,15.21
2022-09-07T03:57:31.634Z,15.22
2022-09-07T03:59:58.506Z,15.20
2022-09-07T04:02:25.320Z,15.18
2022-09-07T04:04:52.026Z,15.20
2022-09-07T04:07:19.113Z,15.20
2022-09-07T04:09:45.820Z,15.18
2022-09-07T04:12:12.483Z,15.16
2022-09-07T04:14:39.514Z,15.17
2022-09-07T04:17:06.309Z,15.17
2022-09-07T04:19:33.069Z,15.16
2022-09-07T04:22:00.131Z,15.16
2022-09-07T04:24:26.988Z,15.16
2022-09-07T04:26:53.756Z,15.16
2022-09-07T04:29:20.481Z,15.16
2022-09-07T04:31:47.481Z,15.16
2022-09-07T04:34:14.675Z,15.15
2022-09-07T04:36:41.494Z,15.15
2022-09-07T04:39:08.318Z,15.15
2022-09-07T04:41:35.067Z,15.14
2022-09-07T04:44:04.640Z,15.16
2022-09-07T04:46:37.054Z,15.15
2022-09-07T04:49:09.487Z,15.15
2022-09-07T04:51:38.477Z,15.14
2022-09-07T04:54:06.342Z,15.14
2022-09-07T04:56:33.496Z,15.12
2022-09-07T04:59:01.879Z,15.11
2022-09-07T05:01:29.028Z,15.11
2022-09-07T05:03:55.980Z,15.10
2022-09-07T05:06:23.499Z,15.09
2022-09-07T05:08:52.413Z,15.09
2022-09-07T05:11:22.859Z,15.08
2022-09-07T05:13:52.146Z,15.08
2022-09-07T05:16:22.043Z,15.07
2022-09-07T05:18:57.724Z,15.04
2022-09-07T05:21:27.510Z,15.03
2022-09-07T05:23:56.194Z,15.03
2022-09-07T05:26:25.625Z,15.02
2022-09-07T05:28:52.750Z,15.03
2022-09-07T05:31:22.301Z,15.06
2022-09-07T05:36:38.182Z,15.07
2022-09-07T05:39:06.553Z,15.08
2022-09-07T05:41:33.247Z,15.11
2022-09-07T05:46:47.153Z,15.11
2022-09-07T05:49:13.895Z,15.11
2022-09-07T05:51:41.233Z,15.11
2022-09-07T05:54:08.226Z,15.11
2022-09-07T05:56:36.486Z,15.10
2022-09-07T05:59:03.818Z,15.09
2022-09-07T06:01:31.444Z,15.09
2022-09-07T06:03:58.381Z,15.09
2022-09-07T06:07:27.209Z,15.09
2022-09-07T06:14:47.885Z,15.11
2022-09-07T06:18:14.533Z,15.13
2022-09-07T06:21:24.007Z,15.15
2022-09-07T06:24:51.074Z,15.19
2022-09-07T06:28:17.623Z,15.20
2022-09-07T06:35:30.721Z,15.24
2022-09-07T06:42:51.129Z,15.25
2022-09-07T06:50:04.887Z,15.22
2022-09-07T06:53:34.470Z,15.24
2022-09-07T06:56:05.030Z,15.23
2022-09-07T06:58:31.922Z,15.23
2022-09-07T07:00:58.986Z,15.21
2022-09-07T07:03:25.883Z,15.21
2022-09-07T07:05:56.884Z,15.23
2022-09-07T07:08:25.786Z,15.23
2022-09-07T07:10:53.155Z,15.24
2022-09-07T07:15:46.754Z,15.24
2022-09-07T07:18:21.298Z,15.26
2022-09-07T07:20:48.426Z,15.25
2022-09-07T07:23:15.239Z,15.25
2022-09-07T07:25:41.947Z,15.26
2022-09-07T07:30:58.034Z,15.25
2022-09-07T07:33:29.376Z,15.28
2022-09-07T07:35:56.003Z,15.31
2022-09-07T07:44:00.541Z,15.52
2022-09-07T07:46:28.616Z,15.54
2022-09-07T07:48:55.841Z,15.55
2022-09-07T07:51:22.727Z,15.56
2022-09-07T07:53:49.765Z,15.58
2022-09-07T07:56:16.521Z,15.59
2022-09-07T07:58:48.008Z,15.59
2022-09-07T08:01:17.520Z,15.60
2022-09-07T08:03:47.497Z,15.62
2022-09-07T08:06:20.334Z,15.61
2022-09-07T08:08:47.700Z,15.63
2022-09-07T08:11:19.596Z,15.66
2022-09-07T08:13:49.621Z,15.75
2022-09-07T08:16:17.484Z,15.86
2022-09-07T08:18:47.012Z,16.03
2022-09-07T08:21:15.867Z,16.19
2022-09-07T08:23:42.757Z,16.35
2022-09-07T08:26:12.435Z,16.44
2022-09-07T08:28:41.320Z,16.45
2022-09-07T08:31:13.738Z,16.47
2022-09-07T08:33:41.382Z,16.46
2022-09-07T08:36:11.806Z,16.50
2022-09-07T08:38:38.797Z,16.56
2022-09-07T08:41:43.693Z,16.65
2022-09-07T08:44:24.777Z,16.71
2022-09-07T08:46:56.864Z,16.72
2022-09-07T08:49:41.336Z,16.68
2022-09-07T08:52:16.785Z,16.64
2022-09-07T08:54:50.174Z,16.62
2022-09-07T08:57:26.439Z,16.56
2022-09-07T09:00:09.451Z,16.51
2022-09-07T09:02:42.463Z,16.46
2022-09-07T09:05:25.900Z,16.44
2022-09-07T09:08:31.332Z,16.45
2022-09-07T09:11:04.237Z,16.43
2022-09-07T09:13:52.293Z,16.37
2022-09-07T09:16:22.023Z,16.36
2022-09-07T09:19:25.807Z,16.37
2022-09-07T09:22:14.717Z,16.44
2022-09-07T09:24:47.435Z,16.55
2022-09-07T09:27:14.868Z,16.65
2022-09-07T09:29:42.470Z,16.71
2022-09-07T09:32:35.268Z,16.71
2022-09-07T09:35:31.119Z,16.68
2022-09-07T09:37:58.137Z,16.66
2022-09-07T09:40:27.688Z,16.68
2022-09-07T09:43:22.581Z,16.73
2022-09-07T09:48:41.828Z,16.73
2022-09-07T09:53:58.339Z,16.74
2022-09-07T09:56:42.958Z,16.74
2022-09-07T10:05:29.791Z,16.97
2022-09-07T10:07:57.153Z,17.06
2022-09-07T10:10:25.245Z,17.10
2022-09-07T10:12:56.627Z,17.25
2022-09-07T10:15:32.814Z,17.35
2022-09-07T10:18:06.120Z,17.55
2022-09-07T10:20:38.111Z,17.67
2022-09-07T10:23:06.713Z,18.14
2022-09-07T10:25:39.876Z,18.29
2022-09-07T10:28:12.844Z,18.24
2022-09-07T10:30:45.293Z,18.02
2022-09-07T10:33:33.323Z,17.83
2022-09-07T10:36:26.370Z,17.70
2022-09-07T10:39:01.550Z,17.51
2022-09-07T10:41:48.464Z,17.35
2022-09-07T10:44:30.080Z,17.28
2022-09-07T10:47:20.098Z,17.27
2022-09-07T10:53:13.380Z,17.48
2022-09-07T10:56:11.658Z,17.58
2022-09-07T10:59:16.341Z,17.65
2022-09-07T11:01:51.688Z,17.63
2022-09-07T11:04:40.206Z,17.56
2022-09-07T11:07:47.913Z,17.48
2022-09-07T11:10:48.744Z,17.45
2022-09-07T11:13:22.365Z,17.43
2022-09-07T11:16:50.624Z,17.34
2022-09-07T11:22:16.678Z,17.28
2022-09-07T11:28:19.644Z,17.27
2022-09-07T11:30:51.001Z,17.29
2022-09-07T11:33:24.309Z,17.29
2022-09-07T11:35:58.897Z,17.28
2022-09-07T11:38:25.992Z,17.33
2022-09-07T11:41:18.532Z,17.34
2022-09-07T11:44:17.498Z,17.43
2022-09-07T11:46:46.466Z,17.64
2022-09-07T11:49:30.610Z,17.80
2022-09-07T11:52:07.103Z,17.80
2022-09-07T11:54:39.679Z,17.64
2022-09-07T11:57:06.228Z,17.28
2022-09-07T11:59:36.757Z,17.08
2022-09-07T12:02:03.591Z,17.52
2022-09-07T12:05:06.066Z,18.76
2022-09-07T12:07:41.615Z,20.12
2022-09-07T12:10:49.976Z,20.60
2022-09-07T12:13:43.450Z,21.29
2022-09-07T12:16:15.927Z,21.92
2022-09-07T12:18:51.596Z,22.63
2022-09-07T12:21:41.144Z,23.68
2022-09-07T12:24:35.335Z,24.79
2022-09-07T12:27:10.608Z,25.36
2022-09-07T12:29:37.690Z,25.33
2022-09-07T12:32:53.708Z,24.87
2022-09-07T12:34:54.956Z,23.94
2022-09-07T12:37:27.714Z,24.02
2022-09-07T12:40:28.639Z,24.97
2022-09-07T12:43:13.421Z,25.34
2022-09-07T12:45:48.636Z,25.57
2022-09-07T12:48:15.368Z,25.12
2022-09-07T12:50:54.346Z,24.76
2022-09-07T12:53:30.118Z,25.49
2022-09-07T12:56:27.984Z,25.14
2022-09-07T12:59:32.257Z,23.88
2022-09-07T13:02:24.222Z,23.10
2022-09-07T13:04:53.559Z,23.34
2022-09-07T13:08:08.012Z,24.86
2022-09-07T13:10:38.149Z,25.21
2022-09-07T13:16:11.722Z,24.37
2022-09-07T13:18:41.598Z,24.37
2022-09-07T13:21:08.373Z,24.26
2022-09-07T13:23:38.607Z,23.75
2022-09-07T13:26:32.682Z,23.88
2022-09-07T13:29:04.471Z,23.78
2022-09-07T13:31:56.294Z,23.86
2022-09-07T13:34:30.099Z,24.27
2022-09-07T13:36:58.204Z,25.02
2022-09-07T13:39:25.541Z,25.73
2022-09-07T13:41:56.179Z,24.89
2022-09-07T13:44:32.509Z,24.04
2022-09-07T13:47:28.880Z,23.18
2022-09-07T13:50:17.162Z,22.39
2022-09-07T13:52:51.886Z,22.64
2022-09-07T13:55:31.679Z,23.06
2022-09-07T13:58:15.368Z,22.79
2022-09-07T14:01:05.005Z,22.65
2022-09-07T14:03:40.290Z,21.84
2022-09-07T14:06:22.711Z,21.16
2022-09-07T14:08:55.802Z,20.83
2022-09-07T14:11:45.403Z,20.56
2022-09-07T14:14:29.481Z,20.42
2022-09-07T14:17:07.474Z,20.24
2022-09-07T14:19:41.419Z,20.42
2022-09-07T14:22:21.979Z,20.68
2022-09-07T14:25:07.946Z,20.60
2022-09-07T14:27:41.142Z,20.25
2022-09-07T14:30:29.021Z,19.89
2022-09-07T14:32:59.899Z,19.61
2022-09-07T14:35:37.160Z,19.40
2022-09-07T14:41:19.547Z,19.46
2022-09-07T14:43:58.074Z,19.73
2022-09-07T14:46:25.977Z,19.69
2022-09-07T14:48:58.350Z,19.42
2022-09-07T14:51:35.092Z,19.21
2022-09-07T14:54:08.175Z,18.99
2022-09-07T14:56:37.387Z,18.92
2022-09-07T14:59:36.925Z,18.90
2022-09-07T15:02:19.150Z,18.82
2022-09-07T15:05:10.054Z,18.68
2022-09-07T15:07:41.554Z,18.44
2022-09-07T15:10:29.266Z,18.41
2022-09-07T15:12:58.710Z,18.43
2022-09-07T15:15:29.227Z,18.54
2022-09-07T15:18:03.123Z,18.75
2022-09-07T15:20:37.169Z,18.94
2022-09-07T15:23:05.929Z,18.93
2022-09-07T15:25:34.524Z,18.80
2022-09-07T15:28:01.633Z,18.76
2022-09-07T15:30:28.787Z,18.75
2022-09-07T15:32:57.345Z,18.79
2022-09-07T15:35:24.743Z,18.75
2022-09-07T15:38:59.435Z,18.82
2022-09-07T15:41:10.660Z,18.93
2022-09-07T15:43:31.525Z,19.26
2022-09-07T15:45:58.552Z,19.49
2022-09-07T15:48:26.006Z,19.81
2022-09-07T15:51:01.581Z,19.97
2022-09-07T15:56:17.255Z,20.17
2022-09-07T15:58:46.609Z,20.06
2022-09-07T16:04:01.656Z,19.53
2022-09-07T16:06:31.187Z,19.27
2022-09-07T16:08:57.841Z,19.12
2022-09-07T16:11:26.924Z,18.95
2022-09-07T16:14:02.288Z,19.21
2022-09-07T16:19:20.377Z,19.11
2022-09-07T16:21:48.121Z,19.15
2022-09-07T16:24:14.850Z,19.13
2022-09-07T16:26:41.555Z,19.07
2022-09-07T16:29:08.580Z,18.83
2022-09-07T16:31:35.641Z,18.74
2022-09-07T16:34:03.511Z,18.86
2022-09-07T16:36:30.779Z,19.80
2022-09-07T16:38:59.868Z,19.69
2022-09-07T16:41:29.423Z,19.63
2022-09-07T16:43:56.369Z,19.80
2022-09-07T16:46:25.611Z,21.63
2022-09-07T16:48:52.782Z,22.35
2022-09-07T16:51:21.426Z,22.76
2022-09-07T16:53:50.058Z,21.53
2022-09-07T16:56:19.490Z,20.88
2022-09-07T16:58:52.620Z,21.06
2022-09-07T17:01:22.546Z,23.72
2022-09-07T17:03:49.951Z,25.16
2022-09-07T17:06:18.561Z,25.01
2022-09-07T17:08:45.262Z,22.96
2022-09-07T17:11:17.377Z,21.95
2022-09-07T17:13:44.684Z,21.34
2022-09-07T17:16:24.256Z,20.77
2022-09-07T17:21:39.656Z,20.49
2022-09-07T17:24:08.355Z,20.44
2022-09-07T17:26:35.669Z,20.39
2022-09-07T17:29:02.454Z,20.37
2022-09-07T17:34:22.180Z,19.82
2022-09-07T17:36:49.288Z,19.53
2022-09-07T17:39:18.623Z,19.36
2022-09-07T17:41:47.748Z,19.23
2022-09-07T17:44:15.020Z,19.04
2022-09-07T17:46:41.685Z,18.92
2022-09-07T17:49:16.827Z,18.78
2022-09-07T17:51:44.804Z,18.72
2022-09-07T17:54:14.844Z,18.71
2022-09-07T17:56:42.370Z,18.65
2022-09-07T18:01:57.071Z,18.38
2022-09-07T18:04:24.619Z,18.20
2022-09-07T18:06:53.004Z,18.08
2022-09-07T18:09:20.136Z,17.96
2022-09-07T18:11:49.166Z,17.84
2022-09-07T18:14:17.070Z,17.73
2022-09-07T18:16:45.666Z,17.64
2022-09-07T18:19:12.861Z,17.60
2022-09-07T18:21:42.153Z,17.57
2022-09-07T18:24:21.279Z,17.54
2022-09-07T18:26:51.786Z,17.52
2022-09-07T18:29:32.197Z,17.51
2022-09-07T18:32:01.365Z,17.51
2022-09-07T18:34:31.902Z,17.49
2022-09-07T18:36:59.235Z,17.49
2022-09-07T18:39:27.070Z,17.47
2022-09-07T18:41:54.547Z,17.45
2022-09-07T18:47:08.956Z,17.33
2022-09-07T18:49:35.619Z,17.28
2022-09-07T18:54:50.331Z,17.26
2022-09-07T18:57:17.127Z,17.24
2022-09-07T18:59:43.780Z,17.25
2022-09-07T19:02:10.939Z,17.21
2022-09-07T19:07:29.528Z,17.20
2022-09-07T19:09:56.471Z,17.16
2022-09-07T19:12:23.947Z,17.14
2022-09-07T19:14:51.001Z,17.12
2022-09-07T19:17:18.008Z,17.08
2022-09-07T19:19:44.762Z,17.10
2022-09-07T19:22:11.841Z,17.06
2022-09-07T19:24:38.649Z,17.06
2022-09-07T19:27:07.224Z,17.00
2022-09-07T19:29:34.114Z,16.95
2022-09-07T19:32:07.764Z,16.89
2022-09-07T19:34:37.206Z,16.83
2022-09-07T19:37:05.768Z,16.79
2022-09-07T19:39:32.667Z,16.76
2022-09-07T19:42:00.075Z,16.74
2022-09-07T19:44:26.963Z,16.73
2022-09-07T19:46:53.721Z,16.74
2022-09-07T19:49:20.636Z,16.71
2022-09-07T19:51:50.291Z,16.66
2022-09-07T19:54:17.002Z,16.64
2022-09-07T19:56:45.159Z,16.59
2022-09-07T19:59:12.664Z,16.55
2022-09-07T20:01:40.663Z,16.50
2022-09-07T20:04:15.987Z,16.46
2022-09-07T20:06:46.741Z,16.39
2022-09-07T20:09:16.746Z,16.33
2022-09-07T20:11:46.524Z,16.30
2022-09-07T20:14:15.176Z,16.28
2022-09-07T20:16:42.248Z,16.28
2022-09-07T20:19:13.914Z,16.33
2022-09-07T20:21:40.630Z,16.37
2022-09-07T20:24:07.607Z,16.39
2022-09-07T20:26:34.439Z,16.40
2022-09-07T20:29:23.830Z,16.38
2022-09-07T20:31:48.184Z,16.35
2022-09-07T20:34:14.921Z,16.32
2022-09-07T20:36:41.586Z,16.29
2022-09-07T20:39:08.516Z,16.26
2022-09-07T20:41:35.480Z,16.25
2022-09-07T20:44:04.034Z,16.27
2022-09-07T20:46:31.830Z,16.33
2022-09-07T20:48:58.863Z,16.36
2022-09-07T20:51:26.079Z,16.35
2022-09-07T20:53:53.179Z,16.36
2022-09-07T20:56:25.945Z,16.37
2022-09-07T20:59:00.640Z,16.31
2022-09-07T21:01:28.910Z,16.25
2022-09-07T21:03:58.178Z,16.18
2022-09-07T21:06:26.616Z,16.09
2022-09-07T21:08:54.762Z,16.02
2022-09-07T21:11:23.059Z,15.99
2022-09-07T21:14:06.362Z,15.98
2022-09-07T21:16:34.331Z,15.96
2022-09-07T21:19:02.213Z,15.97
2022-09-07T21:21:37.762Z,15.97
2022-09-07T21:24:05.881Z,15.97
2022-09-07T21:26:32.996Z,15.96
2022-09-07T21:29:02.114Z,15.99
2022-09-07T21:31:31.073Z,16.00
2022-09-07T21:33:59.701Z,16.01
2022-09-07T21:36:27.156Z,16.03
2022-09-07T21:38:54.398Z,16.05
2022-09-07T21:41:22.885Z,16.05
2022-09-07T21:43:56.150Z,16.01
2022-09-07T21:46:24.114Z,15.98
2022-09-07T21:48:50.876Z,15.95
2022-09-07T21:51:18.242Z,15.98
2022-09-07T21:53:45.055Z,15.98
2022-09-07T21:56:14.090Z,15.97
2022-09-07T21:58:41.372Z,15.95
2022-09-07T22:01:13.239Z,15.96
2022-09-07T22:03:40.696Z,16.01
2022-09-07T22:06:10.942Z,16.06
2022-09-07T22:08:39.901Z,16.11
2022-09-07T22:11:09.757Z,16.16
2022-09-07T22:13:37.271Z,16.19
2022-09-07T22:16:05.726Z,16.23
2022-09-07T22:18:32.850Z,16.25
2022-09-07T22:21:08.363Z,16.24
2022-09-07T22:23:38.522Z,16.24
2022-09-07T22:26:05.966Z,16.24
2022-09-07T22:28:33.424Z,16.26
2022-09-07T22:31:18.971Z,16.25
2022-09-07T22:33:47.814Z,16.21
2022-09-07T22:36:23.136Z,16.19
2022-09-07T22:38:53.061Z,16.19
2022-09-07T22:41:28.277Z,16.17
2022-09-07T22:43:56.262Z,16.19
2022-09-07T22:46:25.255Z,16.19
2022-09-07T22:48:54.628Z,16.19
2022-09-07T22:51:22.075Z,16.15
2022-09-07T22:53:48.885Z,16.11
2022-09-07T22:56:18.726Z,16.06
2022-09-07T22:58:51.051Z,16.03
2022-09-07T23:01:18.158Z,15.99
2022-09-07T23:03:45.776Z,15.95
2022-09-07T23:06:23.457Z,15.92
2022-09-07T23:08:51.709Z,15.87
2022-09-07T23:11:19.864Z,15.85
2022-09-07T23:13:53.584Z,15.84
2022-09-07T23:16:21.552Z,15.82
2022-09-07T23:18:48.651Z,15.82
2022-09-07T23:21:15.626Z,15.83
2022-09-07T23:23:42.544Z,15.81
2022-09-07T23:26:09.619Z,15.82
2022-09-07T23:28:36.919Z,15.85
2022-09-07T23:31:03.847Z,15.90
2022-09-07T23:33:30.922Z,15.95
2022-09-07T23:36:00.478Z,15.99
2022-09-07T23:38:29.414Z,16.01
2022-09-07T23:40:57.773Z,16.03
2022-09-07T23:43:27.468Z,16.00
2022-09-07T23:45:55.229Z,15.96
2022-09-07T23:48:23.010Z,15.95
2022-09-07T23:50:50.686Z,15.97
2022-09-07T23:53:18.091Z,15.99
2022-09-07T23:55:46.040Z,16.00
2022-09-07T23:58:13.110Z,16.01
